createdAt,value
2022-08-17T00:03:10.961Z,97973.00
2022-08-17T00:08:51.253Z,97969.00
2022-08-17T00:14:42.870Z,97966.20
2022-08-17T00:20:34.718Z,97959.00
2022-08-17T00:26:14.216Z,97957.40
2022-08-17T00:31:49.142Z,97961.00
2022-08-17T00:37:16.489Z,97964.40
2022-08-17T00:42:46.403Z,97970.40
2022-08-17T00:48:30.263Z,97975.60
2022-08-17T00:54:13.589Z,97978.40
2022-08-17T01:00:02.241Z,97981.40
2022-08-17T01:06:11.577Z,97985.00
2022-08-17T01:11:59.797Z,97976.80
2022-08-17T01:17:30.056Z,97975.60
2022-08-17T01:23:27.611Z,97973.00
2022-08-17T01:29:25.675Z,97974.40
2022-08-17T01:35:05.143Z,97976.60
2022-08-17T01:41:14.017Z,97970.80
2022-08-17T01:46:39.797Z,97978.80
2022-08-17T01:52:17.225Z,97974.60
2022-08-17T01:57:40.108Z,97979.00
2022-08-17T02:03:13.630Z,97980.20
2022-08-17T02:09:02.992Z,97972.20
2022-08-17T02:14:32.867Z,97976.60
2022-08-17T02:20:18.404Z,97975.60
2022-08-17T02:26:03.889Z,97969.00
2022-08-17T02:31:38.006Z,97967.60
2022-08-17T02:37:26.085Z,97971.00
2022-08-17T02:43:01.301Z,97971.80
2022-08-17T02:48:52.291Z,97966.60
2022-08-17T02:54:41.416Z,97981.40
2022-08-17T03:00:39.024Z,97983.40
2022-08-17T03:06:38.137Z,97988.80
2022-08-17T03:12:18.041Z,97979.00
2022-08-17T03:17:44.091Z,97984.40
2022-08-17T03:23:16.264Z,97992.40
2022-08-17T03:29:02.994Z,97997.00
2022-08-17T03:34:32.834Z,97997.80
2022-08-17T03:40:34.430Z,97989.80
2022-08-17T03:46:35.125Z,97991.60
2022-08-17T03:52:17.405Z,98000.00
2022-08-17T03:57:50.510Z,98013.40
2022-08-17T04:03:27.976Z,98024.60
2022-08-17T04:09:11.699Z,98023.20
2022-08-17T04:14:53.169Z,98023.00
2022-08-17T04:20:32.287Z,98028.20
2022-08-17T04:26:53.175Z,98031.80
2022-08-17T04:33:04.252Z,98029.80
2022-08-17T04:39:26.534Z,98038.80
2022-08-17T04:45:11.684Z,98045.60
2022-08-17T04:50:50.215Z,98055.00
2022-08-17T04:56:51.662Z,98058.40
2022-08-17T05:02:37.185Z,98054.80
2022-08-17T05:08:40.749Z,98061.20
2022-08-17T05:14:13.991Z,98061.00
2022-08-17T05:19:41.709Z,98054.40
2022-08-17T05:25:34.471Z,98053.00
2022-08-17T05:31:19.004Z,98061.60
2022-08-17T05:36:51.658Z,98066.00
2022-08-17T05:42:24.925Z,98069.00
2022-08-17T05:48:10.767Z,98060.80
2022-08-17T05:54:16.118Z,98062.00
2022-08-17T06:00:18.321Z,98055.20
2022-08-17T06:06:17.350Z,98059.60
2022-08-17T06:12:34.528Z,98063.60
2022-08-17T06:18:04.535Z,98057.80
2022-08-17T06:24:15.935Z,98059.80
2022-08-17T06:30:21.525Z,98062.00
2022-08-17T06:36:26.570Z,98056.20
2022-08-17T06:43:02.928Z,98063.40
2022-08-17T06:49:49.551Z,98068.60
2022-08-17T06:55:37.879Z,98071.40
2022-08-17T07:01:25.299Z,98066.80
2022-08-17T07:06:59.928Z,98070.20
2022-08-17T07:12:37.814Z,98073.00
2022-08-17T07:18:07.571Z,98068.80
2022-08-17T07:24:30.588Z,98068.60
2022-08-17T07:30:26.663Z,98067.20
2022-08-17T07:35:50.365Z,98077.80
2022-08-17T07:41:12.631Z,98075.00
2022-08-17T07:47:11.098Z,98078.00
2022-08-17T07:52:51.743Z,98085.80
2022-08-17T07:58:26.413Z,98094.20
2022-08-17T08:03:55.111Z,98093.60
2022-08-17T08:09:48.587Z,98094.20
2022-08-17T08:15:13.893Z,98096.20
2022-08-17T08:21:33.238Z,98096.00
2022-08-17T08:27:31.016Z,98095.20
2022-08-17T08:33:39.709Z,98092.60
2022-08-17T08:39:16.254Z,98095.40
2022-08-17T08:45:42.539Z,98091.60
2022-08-17T08:51:20.722Z,98094.20
2022-08-17T08:57:29.424Z,98092.20
2022-08-17T09:03:51.571Z,98097.80
2022-08-17T09:10:15.075Z,98100.20
2022-08-17T09:16:02.092Z,98094.40
2022-08-17T09:21:54.756Z,98100.20
2022-08-17T09:27:33.416Z,98100.00
2022-08-17T09:33:09.063Z,98106.20
2022-08-17T09:39:03.065Z,98105.00
2022-08-17T09:45:32.405Z,98104.00
2022-08-17T09:51:06.596Z,98105.40
2022-08-17T09:57:30.380Z,98100.20
2022-08-17T10:04:05.108Z,98095.20
2022-08-17T10:10:29.801Z,98084.40
2022-08-17T10:17:44.301Z,98084.20
2022-08-17T10:24:02.009Z,98088.40
2022-08-17T10:31:05.256Z,98093.20
2022-08-17T10:37:42.484Z,98096.60
2022-08-17T10:44:59.510Z,98102.60
2022-08-17T10:51:53.296Z,98104.40
2022-08-17T10:57:50.322Z,98090.40
2022-08-17T11:04:21.287Z,98088.00
2022-08-17T11:11:13.656Z,98086.40
2022-08-17T11:17:55.649Z,98093.80
2022-08-17T11:24:56.777Z,98098.00
2022-08-17T11:31:03.200Z,98096.60
2022-08-17T11:37:50.667Z,98096.20
2022-08-17T11:44:11.077Z,98095.80
2022-08-17T11:50:55.728Z,98095.00
2022-08-17T11:56:52.917Z,98082.00
2022-08-17T12:03:16.130Z,98082.80
2022-08-17T12:09:20.589Z,98078.00
2022-08-17T12:15:17.829Z,98073.00
2022-08-17T12:21:03.537Z,98072.40
2022-08-17T12:26:33.571Z,98065.60
2022-08-17T12:32:35.306Z,98065.60
2022-08-17T12:38:31.819Z,98070.80
2022-08-17T12:44:30.606Z,98073.80
2022-08-17T12:50:04.243Z,98075.60
2022-08-17T12:55:37.544Z,98071.40
2022-08-17T13:01:16.256Z,98070.00
2022-08-17T13:07:03.799Z,98064.60
2022-08-17T13:12:44.646Z,98061.80
2022-08-17T13:18:35.366Z,98060.00
2022-08-17T13:24:04.305Z,98056.40
2022-08-17T13:29:45.631Z,98060.40
2022-08-17T13:35:51.590Z,98060.20
2022-08-17T13:41:40.436Z,98056.40
2022-08-17T13:47:18.403Z,98055.40
2022-08-17T13:52:43.498Z,98048.00
2022-08-17T13:58:07.400Z,98052.60
2022-08-17T14:03:29.903Z,98065.80
2022-08-17T14:08:56.178Z,98056.80
2022-08-17T14:14:19.179Z,98059.20
2022-08-17T14:19:41.512Z,98064.40
2022-08-17T14:25:08.562Z,98063.20
2022-08-17T14:30:35.940Z,98053.60
2022-08-17T14:36:07.679Z,98058.80
2022-08-17T14:41:30.505Z,98063.60
2022-08-17T14:47:15.983Z,98070.00
2022-08-17T14:52:42.797Z,98072.60
2022-08-17T14:58:09.185Z,98067.40
2022-08-17T15:03:34.751Z,98065.00
2022-08-17T15:08:56.887Z,98061.60
2022-08-17T15:14:19.052Z,98061.60
2022-08-17T15:19:41.369Z,98059.60
2022-08-17T15:25:10.212Z,98058.60
2022-08-17T15:30:32.378Z,98066.60
2022-08-17T15:35:54.666Z,98063.00
2022-08-17T15:41:33.445Z,98059.40
2022-08-17T15:47:06.073Z,98054.80
2022-08-17T15:52:40.584Z,98060.20
2022-08-17T15:58:03.821Z,98056.80
2022-08-17T16:04:01.580Z,98060.60
2022-08-17T16:09:21.701Z,98061.40
2022-08-17T16:15:17.748Z,98063.40
2022-08-17T16:21:23.642Z,98062.40
2022-08-17T16:26:46.163Z,98060.20
2022-08-17T16:32:21.008Z,98059.80
2022-08-17T16:37:58.961Z,98063.80
2022-08-17T16:43:21.012Z,98071.20
2022-08-17T16:48:46.698Z,98071.40
2022-08-17T16:54:09.128Z,98073.20
2022-08-17T16:59:40.925Z,98071.80
2022-08-17T17:05:42.361Z,98080.80
2022-08-17T17:11:54.472Z,98084.60
2022-08-17T17:17:34.759Z,98091.40
2022-08-17T17:23:41.076Z,98093.80
2022-08-17T17:29:48.636Z,98090.60
2022-08-17T17:36:08.609Z,98095.80
2022-08-17T17:42:01.305Z,98101.40
2022-08-17T17:47:23.458Z,98112.40
2022-08-17T17:53:07.629Z,98116.00
2022-08-17T17:59:12.945Z,98115.80
2022-08-17T18:04:58.008Z,98126.00
2022-08-17T18:11:04.848Z,98130.20
2022-08-17T18:16:29.832Z,98130.80
2022-08-17T18:22:14.416Z,98129.40
2022-08-17T18:27:51.959Z,98128.00
2022-08-17T18:33:26.962Z,98129.00
2022-08-17T18:39:27.429Z,98128.40
2022-08-17T18:44:56.653Z,98137.40
2022-08-17T18:50:47.689Z,98140.60
2022-08-17T18:56:30.718Z,98147.20
2022-08-17T19:02:45.113Z,98147.00
2022-08-17T19:08:24.853Z,98154.80
2022-08-17T19:14:10.547Z,98159.80
2022-08-17T19:20:13.865Z,98161.00
2022-08-17T19:25:50.860Z,98170.40
2022-08-17T19:31:27.265Z,98179.60
2022-08-17T19:37:02.809Z,98184.40
2022-08-17T19:42:33.128Z,98185.40
2022-08-17T19:48:40.572Z,98181.60
2022-08-17T19:54:38.274Z,98176.80
2022-08-17T20:00:15.499Z,98171.80
2022-08-17T20:06:20.524Z,98173.20
2022-08-17T20:12:02.184Z,98176.40
2022-08-17T20:17:57.036Z,98173.40
2022-08-17T20:23:45.232Z,98181.80
2022-08-17T20:29:36.930Z,98177.60
2022-08-17T20:35:19.387Z,98172.20
2022-08-17T20:41:04.026Z,98164.20
2022-08-17T20:46:47.201Z,98160.60
2022-08-17T20:52:51.517Z,98160.60
2022-08-17T20:58:17.865Z,98158.60
2022-08-17T21:04:49.130Z,98159.80
2022-08-17T21:11:17.359Z,98169.80
2022-08-17T21:18:21.669Z,98175.00
2022-08-17T21:25:01.263Z,98179.40
2022-08-17T21:32:17.116Z,98176.80
2022-08-17T21:39:02.048Z,98170.60
2022-08-17T21:46:13.720Z,98165.20
2022-08-17T21:53:16.735Z,98164.40
2022-08-17T22:00:19.982Z,98150.00
2022-08-17T22:07:35.217Z,98137.00
2022-08-17T22:14:52.129Z,98139.20
2022-08-17T22:21:56.686Z,98133.40
2022-08-17T22:29:21.243Z,98125.20
2022-08-17T22:36:22.031Z,98106.60
2022-08-17T22:43:26.161Z,98110.40
2022-08-17T22:50:25.437Z,98105.20
2022-08-17T22:57:32.948Z,98117.20
2022-08-17T23:04:36.894Z,98138.00
2022-08-17T23:11:48.999Z,98147.20
2022-08-17T23:18:37.965Z,98164.40
2022-08-17T23:25:40.935Z,98168.60
2022-08-17T23:32:26.674Z,98170.80
2022-08-17T23:39:24.594Z,98161.80
2022-08-17T23:46:30.838Z,98159.80
2022-08-17T23:53:34.272Z,98172.20
